Time;durP1;ratioP1;P1;durP2;ratioP2;P2;SDS_P1;SDS_P2;PMS_P1;PMS_P2;Temp;Humidity;BMP_temperature;BMP_pressure;BME280_temperature;BME280_humidity;BME280_pressure;Samples;Min_cycle;Max_cycle;Signal;HPM_P1;HPM_P2
2023/01/18 00:02:08;;;;;;;13.23;7.50;;;-1.00;99.90;;;;;;6097020;23;20518;-81
2023/01/18 00:04:33;;;;;;;12.18;8.27;;;-1.00;99.90;;;;;;6096532;23;20037;-82
2023/01/18 00:06:59;;;;;;;12.70;7.53;;;-1.00;99.90;;;;;;6121150;23;20021;-82
2023/01/18 00:09:25;;;;;;;13.82;8.00;;;-1.10;99.90;;;;;;6072705;23;20013;-82
2023/01/18 00:11:50;;;;;;;13.50;7.85;;;-1.10;99.90;;;;;;6096448;23;20365;-82
2023/01/18 00:14:16;;;;;;;12.02;8.48;;;-1.10;99.90;;;;;;6095920;23;20029;-82
2023/01/18 00:16:42;;;;;;;12.02;8.10;;;-1.20;99.90;;;;;;6072488;23;20508;-82
2023/01/18 00:19:11;;;;;;;13.50;8.43;;;-1.20;99.90;;;;;;6123179;23;20216;-82
2023/01/18 00:21:37;;;;;;;12.60;8.48;;;-1.20;99.90;;;;;;6151227;23;20092;-83
2023/01/18 00:24:03;;;;;;;15.20;9.25;;;-1.30;99.90;;;;;;6153269;23;20049;-83
2023/01/18 00:26:30;;;;;;;12.00;9.40;;;-1.30;99.90;;;;;;6151518;23;20013;-83
2023/01/18 00:28:56;;;;;;;12.13;9.13;;;-1.30;99.90;;;;;;6152987;23;20010;-83
2023/01/18 00:31:21;;;;;;;14.85;9.95;;;-1.10;99.90;;;;;;6153839;23;20031;-82
2023/01/18 00:33:48;;;;;;;12.57;9.32;;;-1.40;99.90;;;;;;6154208;23;20084;-82
2023/01/18 00:36:15;;;;;;;13.00;10.18;;;-1.30;99.90;;;;;;6153282;23;20006;-82
2023/01/18 00:38:41;;;;;;;14.32;9.85;;;-1.40;99.90;;;;;;6151863;23;20010;-82
2023/01/18 00:41:07;;;;;;;12.13;9.65;;;-0.80;99.90;;;;;;6126842;23;20065;-83
2023/01/18 00:43:38;;;;;;;11.15;9.13;;;-1.40;99.90;;;;;;6152757;23;20018;-82
2023/01/18 00:46:10;;;;;;;13.98;10.63;;;-1.40;99.90;;;;;;6151421;23;20049;-83
2023/01/18 00:48:37;;;;;;;13.38;11.07;;;-1.40;99.90;;;;;;6151357;23;20048;-82
2023/01/18 00:51:04;;;;;;;14.65;11.32;;;-1.40;99.90;;;;;;6151555;23;20021;-82
2023/01/18 00:53:29;;;;;;;13.68;10.40;;;-1.40;99.90;;;;;;6153146;23;20152;-83
2023/01/18 00:55:55;;;;;;;16.65;11.23;;;-1.40;99.90;;;;;;6152935;23;20104;-82
2023/01/18 00:58:21;;;;;;;13.70;10.73;;;-1.40;99.90;;;;;;6151369;23;20388;-82
2023/01/18 01:00:51;;;;;;;15.75;11.23;;;-1.50;99.90;;;;;;6127204;23;20018;-82
2023/01/18 01:03:17;;;;;;;16.02;11.27;;;-1.50;99.90;;;;;;6151401;23;20022;-83
2023/01/18 01:08:27;;;;;;;15.05;11.70;;;-1.60;99.90;;;;;;6151260;23;20022;-82
2023/01/18 01:11:07;;;;;;;16.08;12.23;;;-1.60;99.90;;;;;;6150714;23;20040;-82
2023/01/18 01:27:13;;;;;;;14.75;12.27;;;-1.00;99.90;;;;;;6153058;23;20018;-83
2023/01/18 01:29:39;;;;;;;15.90;12.27;;;-1.60;99.90;;;;;;6152992;23;20337;-83
2023/01/18 01:32:05;;;;;;;18.42;13.40;;;-1.60;99.90;;;;;;6151178;23;20009;-83
2023/01/18 01:34:31;;;;;;;20.63;13.60;;;-1.60;99.90;;;;;;6151370;23;20017;-83
2023/01/18 01:36:56;;;;;;;14.50;11.95;;;-1.60;99.90;;;;;;6152643;23;20017;-82
2023/01/18 01:39:22;;;;;;;18.25;13.65;;;-1.60;99.90;;;;;;6151892;23;20021;-83
2023/01/18 01:41:49;;;;;;;19.23;13.80;;;-1.00;99.90;;;;;;6154273;23;20084;-83
2023/01/18 01:44:19;;;;;;;16.58;13.40;;;-1.60;99.90;;;;;;6128258;23;20052;-82
2023/01/18 01:47:09;;;;;;;18.35;13.40;;;-1.40;99.90;;;;;;6154861;23;20032;-83
2023/01/18 01:49:40;;;;;;;20.13;13.98;;;-1.60;99.90;;;;;;6152636;23;20014;-83
2023/01/18 01:52:12;;;;;;;18.45;13.77;;;-1.60;99.90;;;;;;6128315;23;20041;-83
2023/01/18 01:54:55;;;;;;;18.25;14.27;;;-1.60;99.90;;;;;;6152725;23;20013;-83
2023/01/18 01:57:27;;;;;;;17.17;14.10;;;-1.60;99.90;;;;;;6152861;23;20044;-83
2023/01/18 02:00:02;;;;;;;19.50;14.05;;;-1.60;99.90;;;;;;6128251;23;20032;-82
2023/01/18 02:02:31;;;;;;;19.15;14.07;;;-1.60;99.90;;;;;;6155028;23;20089;-83
2023/01/18 02:04:58;;;;;;;17.27;15.05;;;-1.60;99.90;;;;;;6152924;23;20063;-82
2023/01/18 02:07:25;;;;;;;17.95;15.32;;;-1.60;99.90;;;;;;6153985;23;20017;-83
2023/01/18 02:09:52;;;;;;;17.23;14.60;;;-1.60;99.90;;;;;;6153961;23;20009;-83
2023/01/18 02:12:18;;;;;;;19.52;15.55;;;-1.60;99.90;;;;;;6152630;23;20014;-81
2023/01/18 02:14:44;;;;;;;21.05;15.20;;;-1.60;99.90;;;;;;6153130;23;20044;-83
2023/01/18 02:17:36;;;;;;;18.05;15.68;;;-1.60;99.90;;;;;;6152567;23;20029;-83
2023/01/18 02:20:28;;;;;;;20.60;16.08;;;-1.60;99.90;;;;;;6152972;23;20009;-83
2023/01/18 02:22:56;;;;;;;20.90;15.73;;;-1.60;99.90;;;;;;6127412;23;20022;-83
2023/01/18 02:25:53;;;;;;;18.30;15.63;;;-1.60;99.90;;;;;;6152267;23;20033;-83
2023/01/18 02:28:36;;;;;;;19.77;16.08;;;-1.60;99.90;;;;;;6127765;23;20013;-83
2023/01/18 02:31:18;;;;;;;21.42;17.58;;;-1.60;99.90;;;;;;6127752;23;20411;-82
2023/01/18 02:33:45;;;;;;;22.70;17.40;;;-1.60;99.90;;;;;;6127830;23;20014;-82
2023/01/18 02:36:25;;;;;;;21.17;16.95;;;-1.60;99.90;;;;;;6153687;23;20091;-83
2023/01/18 02:38:57;;;;;;;20.30;17.88;;;-1.60;99.90;;;;;;6153643;23;20020;-82
2023/01/18 02:47:27;;;;;;;22.38;17.52;;;-1.70;99.90;;;;;;6152277;23;20021;-83
2023/01/18 02:49:57;;;;;;;29.55;17.27;;;-1.70;99.90;;;;;;6154023;23;20017;-82
2023/01/18 02:52:52;;;;;;;21.77;17.92;;;-1.70;99.90;;;;;;6151600;23;20388;-83
2023/01/18 02:55:21;;;;;;;21.52;17.85;;;-1.70;99.90;;;;;;6135295;23;20448;-82
2023/01/18 02:57:47;;;;;;;20.58;17.02;;;-1.70;99.90;;;;;;6152857;23;20028;-82
2023/01/18 03:00:17;;;;;;;21.80;17.27;;;-1.70;99.90;;;;;;6127903;23;20017;-83
2023/01/18 03:02:46;;;;;;;20.48;17.55;;;-1.70;99.90;;;;;;6128157;23;20049;-83
2023/01/18 03:05:12;;;;;;;22.02;19.13;;;-1.70;99.90;;;;;;6154132;23;20446;-83
2023/01/18 03:08:03;;;;;;;23.52;18.70;;;-1.80;99.90;;;;;;6153705;23;20020;-83
2023/01/18 03:10:31;;;;;;;22.52;18.70;;;-1.80;99.90;;;;;;6154501;23;20368;-83
2023/01/18 03:13:03;;;;;;;25.35;19.92;;;-1.80;99.90;;;;;;6154298;23;20337;-82
2023/01/18 03:15:41;;;;;;;22.13;19.08;;;-1.80;99.90;;;;;;6152203;23;20013;-83
2023/01/18 03:18:19;;;;;;;23.52;19.33;;;-1.80;99.90;;;;;;6154360;23;20021;-83
2023/01/18 03:20:52;;;;;;;23.55;19.38;;;-1.80;99.90;;;;;;6151843;23;20013;-83
2023/01/18 03:23:41;;;;;;;24.50;19.08;;;-1.80;99.90;;;;;;6152471;23;20393;-83
2023/01/18 03:26:11;;;;;;;22.17;18.65;;;-1.80;99.90;;;;;;6151398;23;20045;-83
2023/01/18 03:34:31;;;;;;;25.85;19.92;;;-1.80;99.90;;;;;;6152404;23;20048;-83
2023/01/18 03:37:02;;;;;;;21.60;18.13;;;-1.80;99.90;;;;;;6151794;23;20018;-83
2023/01/18 03:39:45;;;;;;;22.40;20.00;;;-1.80;99.90;;;;;;6152199;23;20445;-82
2023/01/18 03:42:24;;;;;;;24.80;18.88;;;-1.80;99.90;;;;;;6152469;23;20108;-82
2023/01/18 03:45:01;;;;;;;22.20;18.85;;;-1.80;99.90;;;;;;6153192;23;20153;-83
2023/01/18 03:47:27;;;;;;;23.60;19.30;;;-1.90;99.90;;;;;;6152418;23;20106;-83
2023/01/18 03:49:53;;;;;;;26.90;19.33;;;-1.90;99.90;;;;;;6151387;23;20042;-83
2023/01/18 03:52:25;;;;;;;25.02;19.13;;;-1.90;99.90;;;;;;6152345;23;20009;-82
2023/01/18 03:55:10;;;;;;;25.53;20.23;;;-1.90;99.90;;;;;;6152160;23;20021;-82
2023/01/18 03:57:44;;;;;;;27.55;20.15;;;-1.90;99.90;;;;;;6153860;23;20237;-83
2023/01/18 04:00:11;;;;;;;26.60;20.45;;;-1.90;99.90;;;;;;6153622;23;20053;-82
2023/01/18 04:02:36;;;;;;;27.60;20.48;;;-1.90;99.90;;;;;;6153835;23;20014;-83
2023/01/18 04:05:04;;;;;;;31.30;20.63;;;-1.90;99.90;;;;;;6126396;23;20021;-83
2023/01/18 04:07:30;;;;;;;25.77;20.48;;;-1.90;99.90;;;;;;6152055;23;20439;-83
2023/01/18 04:09:59;;;;;;;23.88;19.98;;;-1.90;99.90;;;;;;6151695;23;20100;-84
2023/01/18 04:12:26;;;;;;;25.58;19.80;;;-1.60;99.90;;;;;;6151493;23;20005;-83
2023/01/18 04:14:51;;;;;;;28.17;21.42;;;-1.90;99.90;;;;;;6151829;23;20017;-83
2023/01/18 04:17:17;;;;;;;31.20;21.08;;;-1.90;99.90;;;;;;6151709;23;20017;-82
2023/01/18 04:19:43;;;;;;;25.23;20.73;;;-1.90;99.90;;;;;;6152441;23;20048;-82
2023/01/18 04:22:09;;;;;;;26.00;19.40;;;-1.90;99.90;;;;;;6153512;23;20010;-83
2023/01/18 04:24:35;;;;;;;21.88;18.90;;;-1.90;99.90;;;;;;6151658;23;20081;-83
2023/01/18 04:27:02;;;;;;;29.45;21.90;;;-2.00;99.90;;;;;;6153595;23;20425;-83
2023/01/18 04:29:27;;;;;;;28.15;21.92;;;-1.90;99.90;;;;;;6152480;23;20010;-82
2023/01/18 04:31:53;;;;;;;25.50;21.70;;;-1.90;99.90;;;;;;6129164;23;20079;-83
2023/01/18 04:34:21;;;;;;;26.60;21.48;;;-1.90;99.90;;;;;;6153262;23;20506;-83
2023/01/18 04:36:48;;;;;;;29.38;23.45;;;-1.90;99.90;;;;;;6153321;23;20020;-83
2023/01/18 04:39:13;;;;;;;27.20;22.25;;;-1.90;99.90;;;;;;6153452;23;20048;-83
2023/01/18 04:41:39;;;;;;;28.52;22.35;;;-1.90;99.90;;;;;;6151706;23;20025;-82
2023/01/18 04:44:05;;;;;;;24.52;21.92;;;-1.90;99.90;;;;;;6153498;23;20013;-82
2023/01/18 04:46:30;;;;;;;24.13;21.42;;;-2.00;99.90;;;;;;6151701;23;20010;-82
2023/01/18 04:48:56;;;;;;;28.50;23.67;;;-1.90;99.90;;;;;;6150926;23;20085;-83
2023/01/18 04:51:26;;;;;;;28.65;21.63;;;-2.00;99.90;;;;;;6153484;23;20133;-82
2023/01/18 04:53:51;;;;;;;29.48;23.40;;;-2.00;99.90;;;;;;6153409;23;20006;-83
2023/01/18 04:56:17;;;;;;;29.45;23.48;;;-2.00;99.90;;;;;;6151489;23;20089;-83
2023/01/18 04:58:43;;;;;;;27.58;22.65;;;-2.00;99.90;;;;;;6151263;23;20052;-82
2023/01/18 05:01:13;;;;;;;26.88;22.50;;;-2.00;99.90;;;;;;6153353;23;20013;-83
2023/01/18 05:03:40;;;;;;;28.30;22.08;;;-1.80;99.90;;;;;;6152294;23;20013;-83
2023/01/18 05:06:07;;;;;;;28.83;23.23;;;-2.00;99.90;;;;;;6152823;23;20077;-82
2023/01/18 05:08:33;;;;;;;27.92;22.15;;;-2.00;99.90;;;;;;6150932;23;20021;-83
2023/01/18 05:11:02;;;;;;;26.00;22.40;;;-2.00;99.90;;;;;;6154043;23;20016;-84
2023/01/18 05:13:28;;;;;;;27.45;21.65;;;-1.90;99.90;;;;;;6153336;23;20020;-83
2023/01/18 05:15:54;;;;;;;29.52;23.13;;;-1.90;99.90;;;;;;6153294;23;20014;-83
2023/01/18 05:18:20;;;;;;;29.50;22.55;;;-1.70;99.90;;;;;;6158844;23;20057;-83
2023/01/18 05:20:46;;;;;;;30.20;22.83;;;-1.90;99.90;;;;;;6154216;23;20068;-83
2023/01/18 05:23:13;;;;;;;29.02;22.55;;;-1.90;99.90;;;;;;6155197;23;20056;-83
2023/01/18 05:25:39;;;;;;;31.92;23.85;;;-1.90;99.90;;;;;;6155688;23;20113;-83
2023/01/18 05:28:06;;;;;;;28.85;23.15;;;-1.90;99.90;;;;;;6153448;23;20104;-83
2023/01/18 05:30:33;;;;;;;31.27;24.73;;;-1.90;99.90;;;;;;6153512;23;20152;-82
2023/01/18 05:33:01;;;;;;;27.25;22.80;;;-1.90;99.90;;;;;;6154247;23;20009;-82
2023/01/18 05:35:27;;;;;;;31.35;24.50;;;-1.90;99.90;;;;;;6154955;23;20020;-82
2023/01/18 05:37:52;;;;;;;32.08;23.75;;;-1.90;99.90;;;;;;6154972;23;20013;-82
2023/01/18 05:40:19;;;;;;;28.65;24.02;;;-1.90;99.90;;;;;;6155239;23;20017;-85
2023/01/18 05:42:45;;;;;;;30.77;24.50;;;-1.90;99.90;;;;;;6153115;23;20014;-83
2023/01/18 05:45:11;;;;;;;30.10;24.80;;;-1.90;99.90;;;;;;6153037;23;20013;-82
2023/01/18 05:47:37;;;;;;;28.75;23.83;;;-1.90;99.90;;;;;;6152800;23;20014;-82
2023/01/18 05:50:03;;;;;;;31.00;24.60;;;-2.00;99.90;;;;;;6153002;23;20064;-82
2023/01/18 05:52:28;;;;;;;33.28;23.85;;;-2.00;99.90;;;;;;6154398;23;20013;-82
2023/01/18 05:54:54;;;;;;;29.08;24.27;;;-1.90;99.90;;;;;;6153054;23;20044;-82
2023/01/18 05:57:19;;;;;;;28.25;24.17;;;-1.90;99.90;;;;;;6154818;23;20017;-82
2023/01/18 05:59:45;;;;;;;29.98;23.65;;;-1.90;99.90;;;;;;6154542;23;20013;-82
2023/01/18 06:02:11;;;;;;;30.83;24.40;;;-1.90;99.90;;;;;;6152829;23;20013;-82
2023/01/18 06:04:36;;;;;;;33.88;24.90;;;-1.90;99.90;;;;;;6152519;23;20349;-81
2023/01/18 06:07:02;;;;;;;30.40;24.50;;;-1.90;99.90;;;;;;6127915;23;20455;-82
2023/01/18 06:09:28;;;;;;;30.95;24.30;;;-1.90;99.90;;;;;;6153145;23;20010;-82
2023/01/18 06:11:55;;;;;;;35.17;26.42;;;-1.80;99.90;;;;;;6155080;23;20037;-82
2023/01/18 06:14:20;;;;;;;32.97;26.67;;;-1.80;99.90;;;;;;6153427;23;20017;-82
2023/01/18 06:16:46;;;;;;;30.10;24.17;;;-1.70;99.90;;;;;;6152831;23;20441;-83
2023/01/18 06:19:12;;;;;;;32.22;26.15;;;-1.70;99.90;;;;;;6152795;23;20398;-83
2023/01/18 06:21:37;;;;;;;30.05;23.63;;;-1.70;99.90;;;;;;6154525;23;20140;-82
2023/01/18 06:24:03;;;;;;;29.42;21.85;;;-1.60;99.90;;;;;;6152446;23;20009;-83
2023/01/18 06:26:30;;;;;;;32.75;24.05;;;-1.60;99.90;;;;;;6152967;23;20048;-83
2023/01/18 06:28:56;;;;;;;27.92;21.75;;;-1.60;99.90;;;;;;6152589;23;20306;-82
2023/01/18 06:31:22;;;;;;;27.80;22.58;;;-1.60;99.90;;;;;;6154617;23;20020;-83
2023/01/18 06:33:48;;;;;;;25.75;21.50;;;-0.60;99.90;;;;;;6152668;23;20017;-83
2023/01/18 06:36:14;;;;;;;27.42;21.80;;;-1.70;99.90;;;;;;6152980;23;20022;-83
2023/01/18 06:38:40;;;;;;;27.88;21.17;;;-1.70;99.90;;;;;;6153369;23;20033;-83
2023/01/18 06:41:06;;;;;;;27.48;20.25;;;-1.70;99.90;;;;;;6152723;23;20079;-83
2023/01/18 06:43:32;;;;;;;25.80;20.83;;;-1.20;99.90;;;;;;6153180;23;20013;-83
2023/01/18 06:45:58;;;;;;;25.60;19.63;;;-1.70;99.90;;;;;;6127810;23;20479;-82
2023/01/18 06:48:25;;;;;;;25.40;19.45;;;-1.70;99.90;;;;;;6152958;23;20437;-83
2023/01/18 06:50:51;;;;;;;27.98;20.23;;;-1.70;99.90;;;;;;6154794;23;20009;-83
2023/01/18 06:53:19;;;;;;;26.42;20.00;;;-1.70;99.90;;;;;;6152752;23;20457;-84
2023/01/18 06:55:58;;;;;;;27.27;19.55;;;-1.70;99.90;;;;;;6154178;23;20013;-83
2023/01/18 06:58:25;;;;;;;24.35;18.77;;;-1.70;99.90;;;;;;6153112;23;20013;-84
2023/01/18 07:00:55;;;;;;;26.48;21.10;;;-1.70;99.90;;;;;;6153717;23;20016;-84
2023/01/18 07:03:21;;;;;;;25.48;19.30;;;-1.70;99.90;;;;;;6151761;23;20025;-84
2023/01/18 07:05:47;;;;;;;25.08;17.42;;;-1.70;99.90;;;;;;6151739;23;20453;-84
2023/01/18 07:08:13;;;;;;;24.90;18.75;;;-1.70;99.90;;;;;;6152248;23;20021;-84
2023/01/18 07:10:38;;;;;;;27.92;17.52;;;-1.70;99.90;;;;;;6151498;23;20028;-83
2023/01/18 07:13:04;;;;;;;25.67;19.33;;;-1.70;99.90;;;;;;6151235;23;20037;-84
2023/01/18 07:15:30;;;;;;;22.60;17.80;;;-1.70;99.90;;;;;;6151504;23;20029;-84
2023/01/18 07:17:55;;;;;;;22.15;18.30;;;-1.00;99.90;;;;;;6151982;23;20028;-84
2023/01/18 07:20:22;;;;;;;23.00;17.63;;;-1.70;99.90;;;;;;6153659;23;20080;-84
2023/01/18 07:22:51;;;;;;;26.65;20.70;;;-1.70;99.90;;;;;;6153338;23;20381;-83
2023/01/18 07:25:17;;;;;;;27.02;18.73;;;-1.70;99.90;;;;;;6153526;23;20431;-84
2023/01/18 07:27:43;;;;;;;24.05;18.85;;;-1.70;99.90;;;;;;6151038;23;20018;-84
2023/01/18 07:30:11;;;;;;;20.50;14.38;;;-1.60;99.90;;;;;;6151649;23;20013;-84
2023/01/18 07:32:37;;;;;;;21.75;16.42;;;-1.60;99.90;;;;;;6127577;23;20019;-83
2023/01/18 07:35:04;;;;;;;21.38;16.00;;;-1.60;99.90;;;;;;6151119;23;20028;-84
2023/01/18 07:37:30;;;;;;;25.63;16.95;;;-1.60;99.90;;;;;;6153551;23;20025;-84
2023/01/18 07:39:55;;;;;;;23.55;15.77;;;-1.60;99.90;;;;;;6127030;23;20021;-83
2023/01/18 07:42:21;;;;;;;21.35;15.32;;;-1.60;99.90;;;;;;6151000;23;20365;-84
2023/01/18 07:44:47;;;;;;;19.92;15.48;;;-1.60;99.90;;;;;;6152864;23;20014;-83
2023/01/18 07:47:12;;;;;;;21.05;15.57;;;-1.60;99.90;;;;;;6151625;23;20017;-84
2023/01/18 07:49:38;;;;;;;18.23;14.40;;;-1.50;99.90;;;;;;6153449;23;20009;-84
2023/01/18 07:52:04;;;;;;;21.55;14.68;;;-1.50;99.90;;;;;;6151491;23;20010;-84
2023/01/18 07:54:30;;;;;;;21.48;15.00;;;-1.50;99.90;;;;;;6151476;23;20395;-84
2023/01/18 07:56:55;;;;;;;20.33;14.93;;;-1.50;99.90;;;;;;6152519;23;20045;-84
2023/01/18 07:59:21;;;;;;;20.75;15.45;;;-1.50;99.90;;;;;;6153232;23;20017;-83
2023/01/18 08:01:46;;;;;;;24.50;15.38;;;-1.50;99.90;;;;;;6151425;23;20395;-83
2023/01/18 08:04:12;;;;;;;21.25;13.73;;;-1.60;99.90;;;;;;6151277;23;20362;-84
2023/01/18 08:06:38;;;;;;;24.45;14.52;;;-1.60;99.90;;;;;;6151280;23;20006;-83
2023/01/18 08:09:03;;;;;;;22.67;15.23;;;-1.60;99.90;;;;;;6152940;23;20433;-84
2023/01/18 08:11:30;;;;;;;25.05;15.02;;;-1.60;99.90;;;;;;6152768;23;20013;-83
2023/01/18 08:13:55;;;;;;;21.02;15.15;;;-1.60;99.90;;;;;;6151428;23;20009;-83
2023/01/18 08:16:21;;;;;;;20.13;14.20;;;-1.50;99.90;;;;;;6152704;23;20267;-83
2023/01/18 08:18:50;;;;;;;25.25;15.18;;;-1.50;99.90;;;;;;6151271;23;20147;-83
2023/01/18 08:21:16;;;;;;;23.00;15.95;;;-1.50;99.90;;;;;;6153085;23;20005;-83
2023/01/18 15:44:34;;;;;;;13.68;7.72;;;3.00;99.90;;;;;;6213340;23;20155;-83
2023/01/18 15:47:01;;;;;;;13.38;7.68;;;3.00;99.90;;;;;;6208839;23;20411;-84
2023/01/18 15:49:27;;;;;;;11.68;7.60;;;3.00;99.90;;;;;;6210158;23;20015;-84
2023/01/18 15:51:55;;;;;;;13.27;7.10;;;3.00;99.90;;;;;;6210499;23;20015;-83
2023/01/18 15:54:26;;;;;;;11.05;7.60;;;3.10;99.90;;;;;;6210239;23;20100;-84
2023/01/18 15:56:55;;;;;;;13.20;7.57;;;4.00;99.90;;;;;;6209243;23;20139;-84
2023/01/18 15:59:23;;;;;;;10.52;7.32;;;3.00;99.90;;;;;;6210102;23;20021;-84
2023/01/18 16:02:22;;;;;;;10.40;6.88;;;3.80;99.90;;;;;;6210162;23;20020;-84
2023/01/18 16:04:47;;;;;;;9.95;6.22;;;3.00;99.90;;;;;;6162784;23;20399;-84
2023/01/18 16:07:28;;;;;;;14.27;6.82;;;3.00;99.90;;;;;;6209569;23;20019;-84
2023/01/18 16:10:15;;;;;;;10.38;6.55;;;3.00;99.90;;;;;;6184903;23;20048;-83
2023/01/18 16:12:42;;;;;;;10.88;7.22;;;3.10;99.90;;;;;;6209748;23;20017;-83
2023/01/18 16:15:25;;;;;;;13.20;7.28;;;3.00;99.90;;;;;;6211136;23;20012;-84
2023/01/18 16:17:55;;;;;;;13.68;7.18;;;3.00;99.90;;;;;;6212584;23;20079;-83
2023/01/18 16:20:20;;;;;;;9.85;7.20;;;3.10;99.90;;;;;;6210240;23;20024;-83
2023/01/18 16:22:47;;;;;;;11.20;7.57;;;3.00;99.90;;;;;;6210062;23;20009;-83
2023/01/18 16:25:22;;;;;;;12.55;6.78;;;3.00;99.90;;;;;;6208392;23;20545;-83
2023/01/18 16:27:50;;;;;;;11.73;7.05;;;3.00;99.90;;;;;;6209233;23;20089;-83
2023/01/18 16:30:26;;;;;;;11.73;7.65;;;3.00;99.90;;;;;;6209569;23;20021;-83
2023/01/18 16:32:51;;;;;;;11.80;7.60;;;3.00;99.90;;;;;;6209826;23;20343;-83
2023/01/18 16:35:22;;;;;;;13.57;7.82;;;3.00;99.90;;;;;;6209141;23;20016;-83
2023/01/18 16:37:48;;;;;;;10.98;7.93;;;3.00;99.90;;;;;;6209305;23;20087;-83
2023/01/18 16:40:17;;;;;;;12.70;8.15;;;3.00;99.90;;;;;;6208615;23;20087;-83
2023/01/18 16:42:57;;;;;;;11.90;7.97;;;3.00;99.90;;;;;;6208597;23;20099;-83
2023/01/18 16:45:23;;;;;;;15.88;8.80;;;2.90;99.90;;;;;;6210824;23;20004;-84
2023/01/18 16:47:48;;;;;;;11.93;9.50;;;2.90;99.90;;;;;;6211265;23;20038;-84
2023/01/18 16:50:15;;;;;;;31.45;24.63;;;2.90;99.90;;;;;;6188426;23;20641;-83
2023/01/18 16:52:41;;;;;;;102.72;53.50;;;2.90;99.90;;;;;;6185634;23;20012;-83
2023/01/18 16:55:07;;;;;;;25.17;16.50;;;2.80;99.90;;;;;;6211746;23;20163;-84
2023/01/18 16:57:32;;;;;;;18.17;13.18;;;2.80;99.90;;;;;;6186176;23;20017;-85
2023/01/18 16:59:58;;;;;;;19.55;15.80;;;2.80;99.90;;;;;;6186247;23;20015;-85
2023/01/18 17:02:23;;;;;;;25.63;22.30;;;2.80;99.90;;;;;;6186034;23;20013;-83
2023/01/18 17:04:49;;;;;;;18.92;16.05;;;2.50;99.90;;;;;;6211085;23;20012;-84
2023/01/18 17:07:15;;;;;;;50.10;32.15;;;2.50;99.90;;;;;;6210678;23;20108;-84
2023/01/18 17:09:41;;;;;;;36.67;26.77;;;2.50;99.90;;;;;;6210076;23;20096;-84
2023/01/18 17:12:07;;;;;;;19.85;17.30;;;2.50;99.90;;;;;;6213012;23;20012;-85
2023/01/18 17:14:33;;;;;;;21.90;14.57;;;2.50;99.90;;;;;;6212661;23;20071;-84
2023/01/18 17:16:58;;;;;;;19.63;16.58;;;2.50;99.90;;;;;;6185678;23;20013;-84
2023/01/18 17:19:25;;;;;;;21.38;16.35;;;2.50;99.90;;;;;;6211189;23;20020;-84
2023/01/18 17:21:51;;;;;;;24.55;17.33;;;2.50;99.90;;;;;;6210567;23;20234;-85
2023/01/18 17:24:20;;;;;;;22.90;15.32;;;2.50;99.90;;;;;;6186040;23;20012;-85
2023/01/18 17:26:46;;;;;;;18.75;14.68;;;2.50;99.90;;;;;;6185426;23;20054;-85
2023/01/18 17:29:16;;;;;;;25.80;17.15;;;2.50;99.90;;;;;;6186240;23;20336;-84
2023/01/18 17:31:43;;;;;;;33.60;16.67;;;2.50;99.90;;;;;;6185811;23;20108;-84
2023/01/18 17:34:13;;;;;;;18.42;15.13;;;2.50;99.90;;;;;;6211363;23;20016;-85
2023/01/18 17:36:39;;;;;;;21.98;18.52;;;2.50;99.90;;;;;;6213459;23;20019;-83
2023/01/18 17:39:04;;;;;;;25.52;21.60;;;2.50;99.90;;;;;;6189514;23;20012;-81
2023/01/18 17:41:31;;;;;;;25.60;18.42;;;3.10;99.90;;;;;;6188087;23;20392;-84
2023/01/18 17:43:56;;;;;;;27.10;20.92;;;2.50;99.90;;;;;;6212809;23;20013;-85
2023/01/18 17:46:22;;;;;;;25.08;19.10;;;2.50;99.90;;;;;;6213009;23;20108;-84
2023/01/18 17:48:48;;;;;;;38.13;34.03;;;2.50;99.90;;;;;;6211877;23;20300;-82
2023/01/18 17:51:13;;;;;;;29.35;23.77;;;2.60;99.90;;;;;;6185549;23;20404;-81
2023/01/18 17:53:40;;;;;;;34.08;25.67;;;2.60;99.90;;;;;;6211112;23;20020;-82
2023/01/18 17:56:11;;;;;;;25.67;21.17;;;3.50;99.90;;;;;;6235808;23;20016;-80
2023/01/18 17:58:37;;;;;;;24.08;17.52;;;2.60;99.90;;;;;;6210899;23;20013;-83
2023/01/18 18:01:11;;;;;;;19.80;17.40;;;3.00;99.90;;;;;;6186461;23;20020;-83
2023/01/18 18:03:44;;;;;;;40.50;27.30;;;2.70;99.90;;;;;;6211612;23;20013;-83
2023/01/18 18:06:10;;;;;;;64.88;40.38;;;2.70;99.90;;;;;;6210889;23;20079;-84
2023/01/18 18:08:36;;;;;;;41.38;27.05;;;2.70;99.90;;;;;;6211460;23;20013;-83
2023/01/18 18:11:06;;;;;;;28.33;22.05;;;3.00;99.90;;;;;;6211684;23;20005;-82
2023/01/18 18:13:31;;;;;;;24.73;18.05;;;2.70;99.90;;;;;;6185984;23;20028;-83
2023/01/18 18:15:57;;;;;;;23.65;17.08;;;3.50;99.90;;;;;;6211082;23;20012;-83
2023/01/18 18:18:23;;;;;;;18.42;16.17;;;2.70;99.90;;;;;;6209665;23;20087;-83
2023/01/18 18:20:57;;;;;;;20.42;15.73;;;2.70;99.90;;;;;;6211029;23;20063;-83
2023/01/18 18:23:24;;;;;;;27.90;24.75;;;2.80;99.90;;;;;;6214850;23;20017;-83
2023/01/18 18:25:49;;;;;;;28.15;24.73;;;2.70;99.90;;;;;;6211470;23;20004;-83
2023/01/18 18:28:15;;;;;;;19.35;15.18;;;2.80;99.90;;;;;;6213463;23;20110;-83
2023/01/18 18:30:43;;;;;;;22.25;18.45;;;2.70;99.90;;;;;;6186742;23;20005;-84
2023/01/18 18:33:09;;;;;;;19.67;15.07;;;2.80;99.90;;;;;;6211205;23;20021;-83
2023/01/18 18:35:34;;;;;;;24.48;16.25;;;2.70;99.90;;;;;;6212185;23;20036;-82
2023/01/18 18:38:00;;;;;;;21.33;16.27;;;2.80;99.90;;;;;;6211312;23;20071;-82
2023/01/18 18:40:26;;;;;;;18.15;15.10;;;2.80;99.90;;;;;;6211222;23;20023;-82
2023/01/18 18:42:51;;;;;;;21.83;14.40;;;2.70;99.90;;;;;;6209722;23;20451;-83
2023/01/18 18:45:17;;;;;;;17.85;14.50;;;2.80;99.90;;;;;;6209928;23;20013;-83
2023/01/18 18:47:42;;;;;;;18.63;14.65;;;2.70;99.90;;;;;;6186733;23;20414;-83
2023/01/18 18:50:09;;;;;;;23.15;15.32;;;2.70;99.90;;;;;;6211126;23;20505;-83
2023/01/18 18:52:34;;;;;;;18.05;15.15;;;2.70;99.90;;;;;;6211066;23;20107;-82
2023/01/18 18:55:00;;;;;;;22.92;14.43;;;2.70;99.90;;;;;;6210115;23;20093;-83
2023/01/18 18:57:27;;;;;;;17.13;13.60;;;2.70;99.90;;;;;;6185387;23;20278;-82
2023/01/18 18:59:53;;;;;;;18.25;13.32;;;2.70;99.90;;;;;;6210501;23;20036;-82
2023/01/18 19:02:18;;;;;;;15.02;11.55;;;2.60;99.90;;;;;;6210274;23;20436;-82
2023/01/18 19:04:44;;;;;;;17.15;12.13;;;2.60;99.90;;;;;;6183355;23;20123;-82
2023/01/18 19:07:10;;;;;;;20.00;14.05;;;2.60;99.90;;;;;;6211720;23;20052;-82
2023/01/18 19:09:35;;;;;;;22.42;16.23;;;2.50;99.90;;;;;;6211370;23;20012;-83
2023/01/18 19:12:01;;;;;;;25.52;14.60;;;2.50;99.90;;;;;;6210958;23;20087;-84
2023/01/18 19:14:27;;;;;;;17.08;12.70;;;2.50;99.90;;;;;;6212298;23;20008;-83
2023/01/18 19:16:52;;;;;;;17.05;11.27;;;3.40;99.90;;;;;;6211959;23;20092;-83
2023/01/18 19:19:18;;;;;;;20.45;15.55;;;2.50;99.90;;;;;;6212131;23;20078;-83
2023/01/18 19:21:47;;;;;;;19.23;13.98;;;2.40;99.90;;;;;;6210073;23;20043;-82
2023/01/18 19:24:13;;;;;;;19.00;13.68;;;2.50;99.90;;;;;;6185461;23;20062;-84
2023/01/18 19:26:38;;;;;;;18.35;12.65;;;2.40;99.90;;;;;;6210300;23;20036;-83
2023/01/18 19:29:04;;;;;;;26.10;22.08;;;2.60;99.90;;;;;;6186221;23;20016;-83
2023/01/18 19:31:30;;;;;;;26.60;20.17;;;2.40;99.90;;;;;;6210628;23;20435;-83
2023/01/18 19:34:02;;;;;;;35.92;32.38;;;2.40;99.90;;;;;;6210548;23;20442;-83
2023/01/18 19:36:30;;;;;;;35.08;31.00;;;2.40;99.90;;;;;;6210599;23;20087;-83
2023/01/18 19:38:57;;;;;;;18.83;13.35;;;2.40;99.90;;;;;;6185948;23;20012;-82
2023/01/18 19:41:24;;;;;;;31.65;23.40;;;2.40;99.90;;;;;;6210963;23;20044;-85
2023/01/18 19:43:49;;;;;;;26.52;17.05;;;2.30;99.90;;;;;;6212137;23;20223;-85
2023/01/18 19:46:15;;;;;;;23.95;21.38;;;2.30;99.90;;;;;;6213190;23;20052;-83
2023/01/18 19:48:41;;;;;;;19.38;14.90;;;2.20;99.90;;;;;;6208959;23;20436;-83
2023/01/18 19:51:10;;;;;;;21.67;15.18;;;2.10;99.90;;;;;;6212141;23;20015;-85
2023/01/18 19:53:35;;;;;;;14.73;10.60;;;2.10;99.90;;;;;;6185782;23;20325;-83
2023/01/18 19:56:01;;;;;;;22.20;12.20;;;2.00;99.90;;;;;;6211297;23;20071;-82
2023/01/18 19:58:29;;;;;;;23.80;17.25;;;2.00;99.90;;;;;;6185997;23;20005;-82
2023/01/18 20:00:58;;;;;;;12.90;9.07;;;2.10;99.90;;;;;;6210202;23;20016;-83
2023/01/18 20:03:25;;;;;;;23.85;16.50;;;2.90;99.90;;;;;;6212365;23;20017;-83
2023/01/18 20:05:51;;;;;;;23.02;19.23;;;2.10;99.90;;;;;;6211530;23;20088;-84
2023/01/18 20:08:16;;;;;;;19.95;15.73;;;2.50;99.90;;;;;;6211585;23;20044;-85
2023/01/18 20:10:42;;;;;;;20.00;17.88;;;2.00;99.90;;;;;;6211391;23;20004;-85
2023/01/18 20:13:08;;;;;;;28.35;20.88;;;2.30;99.90;;;;;;6214358;23;20391;-85
2023/01/18 20:15:33;;;;;;;43.70;34.00;;;2.00;99.90;;;;;;6210258;23;20012;-82
2023/01/18 20:17:59;;;;;;;26.50;19.67;;;2.00;99.90;;;;;;6210405;23;20470;-84
2023/01/18 20:20:24;;;;;;;22.50;19.90;;;2.00;99.90;;;;;;6211294;23;20016;-82
2023/01/18 20:22:50;;;;;;;27.17;19.10;;;2.00;99.90;;;;;;6185280;23;20344;-84
2023/01/18 20:25:16;;;;;;;25.02;18.85;;;2.10;99.90;;;;;;6209702;23;20400;-82
2023/01/18 20:27:41;;;;;;;18.25;14.20;;;2.10;99.90;;;;;;6185249;23;20505;-82